Laredo International, TX

10:52 AM CDT en Septiembre 30, 2014 (GMT -0500)
Laredo International | Change Station
CLOSE
Current Station
Aeropuerto
Location: Laredo,
Altura: 509 ft
Estaciones meteorológicas cercanas

Alt 509 ft 27.54 °N, 99.46 °W | Updated 56 minutes ago

Clear
Despejado
80 ° F
Sensación térmica 80 ° F
N
0
Viento Variable Viento desde Norte

Hoy
Alta -- | Baja -- ° F
--% Posibilidad de precipitaciones
Ayer
Alta -- | Baja -- ° F
Precip. -- pul
7:30 AM 7:25 PM
Creciente, 37% visible
Presión 29.88 pul
Visibilidad 10.0 Millas
Nubes Despejado
Punto de rocío 72 ° F
Humedad 77%
Precipitaciones 0.00 pul
Espesor de la nieve No disponible.
UV 3 de una escala de 12
Polen 9.30 de una escala de 12
PM2.5 Buena
Flu Activity No disponible.
METAR KLRD 301456Z 00000KT 10SM CLR 27/22 A2991 RMK AO2 53008 T02660222 SLP116

More Conditions Fewer Conditions

Presión 29.88 pul
Visibilidad 10.0 Millas
Nubes Despejado
Punto de rocío 72 ° F
Humedad 77%
Precipitaciones 0.00 pul
Espesor de la nieve No disponible.
UV 3 de una escala de 12
Polen 9.30 de una escala de 12
PM2.5 Buena
Flu Activity No disponible.
METAR KLRD 301456Z 00000KT 10SM CLR 27/22 A2991 RMK AO2 53008 T02660222 SLP116

More Conditions Fewer Conditions

10-Day Weather Forecast

Almanac

Astronomía

Sep. 30, 2014 Salida Puesta
Hora real 7:30 AM CDT 7:25 PM CDT
Crepúsculo civil 7:06 AM CDT 7:48 PM CDT
Crepúsculo náutico 6:39 AM CDT 8:15 PM CDT
Crepúsculo astronómico 6:12 AM CDT 8:42 PM CDT
Luna 1:16 PM CDT Sin puesta de luna
Horas de luz 12h 41m
Horas de luz
11h 54m
Tomorrow will be 1m 37s shorter.
Creciente, 37% of the Moon is Illuminated
Hoy
Creciente
Oct 1
Cuarto creciente
Oct 8
Luna llena
Oct 15
Cuarto menguante
Oct 23
Nueva

Extremos de hoy

Máximos del estado Bajos del estado

Community

WunderPhotos

Upload Photos

1,757,671 ¡fotos cargadas!

Nearby

Calidad del aire

  Calidad del aire Índice AQ Contaminante
Ayer Moderada
PM2.5
Ayer Buena
OZONE
Real Buena
PM2.5
Martes Buena
PM10
Martes Buena
OZONE
Miércoles Buena
PM10
Miércoles Buena
OZONE
Jueves Buena
PM10
Jueves Buena
OZONE
Viernes Buena
PM10
Viernes Buena
OZONE

Grosos de nieve

Estación Profundido Altura
No tenemos constancia de nieve nueva.

Actividad de terremotos

Ciudad Distance Mag. Tiempo y dato
No hay informes recientes de la actividad sísmica.
Magnitud mínima muestra es 2,5.

Temperaturas de aguas costeras

Lugar Temperatura
Sin partes meteorológicos de las estaciones

Estaciones meteorológicas cercanas